sensor_id;sensor_type;location;lat;lon;timestamp;pressure;altitude;pressure_sealevel;temperature;humidity
50592;BME280;36548;50.506;30.834;2023-01-26T00:00:59;101373.34;;;0.04;64.29
50592;BME280;36548;50.506;30.834;2023-01-26T00:02:14;101375.07;;;0.18;65.14
50592;BME280;36548;50.506;30.834;2023-01-26T00:03:25;101381.25;;;0.13;65.44
50592;BME280;36548;50.506;30.834;2023-01-26T00:04:34;101381.22;;;0.18;65.31
50592;BME280;36548;50.506;30.834;2023-01-26T00:05:43;101371.52;;;0.25;65.29
50592;BME280;36548;50.506;30.834;2023-01-26T00:06:58;101371.48;;;0.36;64.38
50592;BME280;36548;50.506;30.834;2023-01-26T00:08:08;101367.12;;;0.28;64.79
50592;BME280;36548;50.506;30.834;2023-01-26T00:09:18;101370.62;;;0.33;64.70
50592;BME280;36548;50.506;30.834;2023-01-26T00:10:28;101371.48;;;0.36;64.45
50592;BME280;36548;50.506;30.834;2023-01-26T00:11:37;101361.83;;;0.28;63.42
50592;BME280;36548;50.506;30.834;2023-01-26T00:12:50;101363.59;;;0.29;64.29
50592;BME280;36548;50.506;30.834;2023-01-26T00:14:00;101360.07;;;0.32;64.72
50592;BME280;36548;50.506;30.834;2023-01-26T00:15:09;101356.56;;;0.27;63.53
50592;BME280;36548;50.506;30.834;2023-01-26T00:16:19;101353.05;;;0.22;63.70
50592;BME280;36548;50.506;30.834;2023-01-26T00:17:34;101357.41;;;0.30;64.06
50592;BME280;36548;50.506;30.834;2023-01-26T00:18:45;101353.93;;;0.21;64.42
50592;BME280;36548;50.506;30.834;2023-01-26T00:19:57;101352.17;;;0.24;64.93
50592;BME280;36548;50.506;30.834;2023-01-26T00:21:08;101354.77;;;0.30;65.02
50592;BME280;36548;50.506;30.834;2023-01-26T00:22:18;101345.08;;;0.34;65.03
50592;BME280;36548;50.506;30.834;2023-01-26T00:23:29;101341.53;;;0.40;64.93
50592;BME280;36548;50.506;30.834;2023-01-26T00:24:44;101353.78;;;0.55;64.64
50592;BME280;36548;50.506;30.834;2023-01-26T00:25:54;101347.66;;;0.46;64.46
50592;BME280;36548;50.506;30.834;2023-01-26T00:27:11;101343.23;;;0.48;64.36
50592;BME280;36548;50.506;30.834;2023-01-26T00:28:21;101348.53;;;0.52;63.92
50592;BME280;36548;50.506;30.834;2023-01-26T00:29:30;101345.88;;;0.52;63.97
50592;BME280;36548;50.506;30.834;2023-01-26T00:30:40;101345.87;;;0.53;64.11
50592;BME280;36548;50.506;30.834;2023-01-26T00:31:49;101344.97;;;0.57;64.06
50592;BME280;36548;50.506;30.834;2023-01-26T00:32:58;101340.52;;;0.61;64.09
50592;BME280;36548;50.506;30.834;2023-01-26T00:34:08;101336.99;;;0.63;63.87
50592;BME280;36548;50.506;30.834;2023-01-26T00:35:17;101339.63;;;0.65;63.75
50592;BME280;36548;50.506;30.834;2023-01-26T00:36:26;101343.16;;;0.65;63.03
50592;BME280;36548;50.506;30.834;2023-01-26T00:37:40;101345.86;;;0.55;62.21
50592;BME280;36548;50.506;30.834;2023-01-26T00:38:50;101338.86;;;0.47;62.85
50592;BME280;36548;50.506;30.834;2023-01-26T00:40:00;101338.87;;;0.46;63.47
50592;BME280;36548;50.506;30.834;2023-01-26T00:41:16;101337.02;;;0.60;64.00
50592;BME280;36548;50.506;30.834;2023-01-26T00:42:44;101341.50;;;0.47;63.11
50592;BME280;36548;50.506;30.834;2023-01-26T00:43:54;101340.65;;;0.41;63.10
50592;BME280;36548;50.506;30.834;2023-01-26T00:45:05;101333.60;;;0.40;63.69
50592;BME280;36548;50.506;30.834;2023-01-26T00:46:15;101338.86;;;0.43;63.79
50592;BME280;36548;50.506;30.834;2023-01-26T00:47:24;101333.56;;;0.44;63.95
50592;BME280;36548;50.506;30.834;2023-01-26T00:48:33;101345.05;;;0.43;63.31
50592;BME280;36548;50.506;30.834;2023-01-26T00:49:42;101344.16;;;0.41;63.35
50592;BME280;36548;50.506;30.834;2023-01-26T00:50:52;101332.71;;;0.42;64.05
50592;BME280;36548;50.506;30.834;2023-01-26T00:52:02;101324.79;;;0.42;63.60
50592;BME280;36548;50.506;30.834;2023-01-26T00:53:13;101330.07;;;0.42;63.85
50592;BME280;36548;50.506;30.834;2023-01-26T00:54:22;101329.20;;;0.43;63.84
50592;BME280;36548;50.506;30.834;2023-01-26T00:55:32;101329.16;;;0.48;64.25
50592;BME280;36548;50.506;30.834;2023-01-26T00:56:41;101325.64;;;0.49;63.96
50592;BME280;36548;50.506;30.834;2023-01-26T00:57:50;101329.17;;;0.46;63.24
50592;BME280;36548;50.506;30.834;2023-01-26T00:58:58;101336.20;;;0.44;63.40
50592;BME280;36548;50.506;30.834;2023-01-26T01:00:08;101324.78;;;0.44;63.74
50592;BME280;36548;50.506;30.834;2023-01-26T01:01:21;101328.30;;;0.47;64.30
50592;BME280;36548;50.506;30.834;2023-01-26T01:02:30;101330.02;;;0.53;64.41
50592;BME280;36548;50.506;30.834;2023-01-26T01:03:45;101316.72;;;0.67;63.97
50592;BME280;36548;50.506;30.834;2023-01-26T01:04:54;101323.83;;;0.57;63.62
50592;BME280;36548;50.506;30.834;2023-01-26T01:06:03;101328.28;;;0.49;62.72
50592;BME280;36548;50.506;30.834;2023-01-26T01:07:13;101321.28;;;0.42;63.09
50592;BME280;36548;50.506;30.834;2023-01-26T01:08:21;101321.28;;;0.37;63.38
50592;BME280;36548;50.506;30.834;2023-01-26T01:09:31;101324.81;;;0.39;64.06
50592;BME280;36548;50.506;30.834;2023-01-26T01:10:40;101325.66;;;0.43;64.36
50592;BME280;36548;50.506;30.834;2023-01-26T01:11:55;101323.90;;;0.45;64.31
50592;BME280;36548;50.506;30.834;2023-01-26T01:13:05;101316.83;;;0.47;64.31
50592;BME280;36548;50.506;30.834;2023-01-26T01:14:15;101315.07;;;0.49;64.27
50592;BME280;36548;50.506;30.834;2023-01-26T01:15:24;101299.19;;;0.52;64.25
50592;BME280;36548;50.506;30.834;2023-01-26T01:16:33;101307.13;;;0.50;63.64
50592;BME280;36548;50.506;30.834;2023-01-26T01:17:42;101306.23;;;0.55;64.01
50592;BME280;36548;50.506;30.834;2023-01-26T01:18:53;101302.69;;;0.57;64.00
50592;BME280;36548;50.506;30.834;2023-01-26T01:20:07;101303.55;;;0.59;63.84
50592;BME280;36548;50.506;30.834;2023-01-26T01:21:17;101308.00;;;0.51;62.81
50592;BME280;36548;50.506;30.834;2023-01-26T01:22:26;101300.07;;;0.51;63.67
50592;BME280;36548;50.506;30.834;2023-01-26T01:23:37;101299.18;;;0.54;64.22
50592;BME280;36548;50.506;30.834;2023-01-26T01:24:46;101294.75;;;0.59;64.38
50592;BME280;36548;50.506;30.834;2023-01-26T01:25:57;101293.88;;;0.60;63.64
50592;BME280;36548;50.506;30.834;2023-01-26T01:27:07;101300.06;;;0.56;63.14
50592;BME280;36548;50.506;30.834;2023-01-26T01:28:17;101308.88;;;0.50;63.24
50592;BME280;36548;50.506;30.834;2023-01-26T01:29:25;101305.38;;;0.48;63.46
50592;BME280;36548;50.506;30.834;2023-01-26T01:30:36;101304.51;;;0.44;63.58
50592;BME280;36548;50.506;30.834;2023-01-26T01:31:45;101302.80;;;0.37;63.49
50592;BME280;36548;50.506;30.834;2023-01-26T01:32:55;101301.94;;;0.35;63.97
50592;BME280;36548;50.506;30.834;2023-01-26T01:34:06;101308.11;;;0.32;63.91
50592;BME280;36548;50.506;30.834;2023-01-26T01:35:14;101301.05;;;0.33;64.65
50592;BME280;36548;50.506;30.834;2023-01-26T01:36:24;101301.92;;;0.38;65.17
50592;BME280;36548;50.506;30.834;2023-01-26T01:37:34;101299.25;;;0.41;64.68
50592;BME280;36548;50.506;30.834;2023-01-26T01:38:45;101300.11;;;0.46;64.92
50592;BME280;36548;50.506;30.834;2023-01-26T01:39:56;101287.76;;;0.52;64.81
50592;BME280;36548;50.506;30.834;2023-01-26T01:41:06;101292.13;;;0.57;64.78
50592;BME280;36548;50.506;30.834;2023-01-26T01:42:15;101285.92;;;0.63;64.68
50592;BME280;36548;50.506;30.834;2023-01-26T01:43:25;101290.30;;;0.67;64.38
50592;BME280;36548;50.506;30.834;2023-01-26T01:44:37;101290.27;;;0.70;63.88
50592;BME280;36548;50.506;30.834;2023-01-26T01:45:47;101288.47;;;0.72;63.99
50592;BME280;36548;50.506;30.834;2023-01-26T01:47:10;101284.83;;;0.89;63.97
50592;BME280;36548;50.506;30.834;2023-01-26T01:48:26;101289.31;;;0.82;63.93
50592;BME280;36548;50.506;30.834;2023-01-26T01:49:48;101281.35;;;0.85;63.79
50592;BME280;36548;50.506;30.834;2023-01-26T01:52:26;101266.24;;;0.99;63.05
50592;BME280;36548;50.506;30.834;2023-01-26T01:53:38;101277.81;;;0.88;62.56
50592;BME280;36548;50.506;30.834;2023-01-26T01:54:53;101273.44;;;0.83;62.77
50592;BME280;36548;50.506;30.834;2023-01-26T01:56:09;101269.93;;;0.80;62.63
50592;BME280;36548;50.506;30.834;2023-01-26T01:58:45;101263.69;;;0.89;63.57
50592;BME280;36548;50.506;30.834;2023-01-26T02:00:05;101269.03;;;0.82;63.74
50592;BME280;36548;50.506;30.834;2023-01-26T02:01:18;101268.98;;;0.87;63.69
50592;BME280;36548;50.506;30.834;2023-01-26T02:02:28;101262.78;;;0.91;63.35
50592;BME280;36548;50.506;30.834;2023-01-26T02:03:37;101260.13;;;0.93;63.31
50592;BME280;36548;50.506;30.834;2023-01-26T02:04:49;101260.11;;;0.94;63.25
50592;BME280;36548;50.506;30.834;2023-01-26T02:06:16;101254.84;;;0.96;63.04
50592;BME280;36548;50.506;30.834;2023-01-26T02:07:27;101256.58;;;0.95;63.02
50592;BME280;36548;50.506;30.834;2023-01-26T02:08:42;101253.08;;;0.95;63.02
50592;BME280;36548;50.506;30.834;2023-01-26T02:09:54;101251.30;;;0.95;62.96
50592;BME280;36548;50.506;30.834;2023-01-26T02:11:35;101257.48;;;0.96;63.01
50592;BME280;36548;50.506;30.834;2023-01-26T02:12:46;101255.70;;;0.96;62.92
50592;BME280;36548;50.506;30.834;2023-01-26T02:14:04;101252.17;;;0.97;62.90
50592;BME280;36548;50.506;30.834;2023-01-26T02:15:14;101253.92;;;0.97;62.91
50592;BME280;36548;50.506;30.834;2023-01-26T02:16:24;101250.39;;;0.98;62.76
50592;BME280;36548;50.506;30.834;2023-01-26T02:17:33;101250.39;;;0.98;62.73
50592;BME280;36548;50.506;30.834;2023-01-26T02:18:45;101243.34;;;0.97;62.61
50592;BME280;36548;50.506;30.834;2023-01-26T02:21:23;101238.08;;;0.95;62.53
50592;BME280;36548;50.506;30.834;2023-01-26T02:24:17;101235.45;;;0.94;62.43
50592;BME280;36548;50.506;30.834;2023-01-26T02:26:55;101244.25;;;0.94;62.67
50592;BME280;36548;50.506;30.834;2023-01-26T02:28:06;101234.63;;;0.87;61.84
50592;BME280;36548;50.506;30.834;2023-01-26T02:29:17;101239.08;;;0.80;61.85
50592;BME280;36548;50.506;30.834;2023-01-26T02:30:33;101229.32;;;0.89;62.66
50592;BME280;36548;50.506;30.834;2023-01-26T02:31:43;101231.16;;;0.79;62.85
50592;BME280;36548;50.506;30.834;2023-01-26T02:32:54;101228.50;;;0.80;63.04
50592;BME280;36548;50.506;30.834;2023-01-26T02:34:03;101233.81;;;0.82;63.01
50592;BME280;36548;50.506;30.834;2023-01-26T02:35:13;101228.50;;;0.83;62.80
50592;BME280;36548;50.506;30.834;2023-01-26T02:36:26;101223.23;;;0.79;62.54
50592;BME280;36548;50.506;30.834;2023-01-26T02:37:35;101225.88;;;0.82;62.96
50592;BME280;36548;50.506;30.834;2023-01-26T02:39:12;101229.39;;;0.82;62.96
50592;BME280;36548;50.506;30.834;2023-01-26T02:40:36;101224.01;;;0.93;62.82
50592;BME280;36548;50.506;30.834;2023-01-26T02:41:42;101224.08;;;0.84;62.83
50592;BME280;36548;50.506;30.834;2023-01-26T02:43:11;101227.59;;;0.84;62.98
50592;BME280;36548;50.506;30.834;2023-01-26T02:44:21;101233.76;;;0.87;63.05
50592;BME280;36548;50.506;30.834;2023-01-26T02:45:32;101224.95;;;0.88;62.96
50592;BME280;36548;50.506;30.834;2023-01-26T02:46:41;101222.27;;;0.91;62.88
50592;BME280;36548;50.506;30.834;2023-01-26T02:47:50;101224.02;;;0.90;62.59
50592;BME280;36548;50.506;30.834;2023-01-26T02:49:00;101218.72;;;0.90;62.70
50592;BME280;36548;50.506;30.834;2023-01-26T02:50:28;101224.03;;;0.92;62.70
50592;BME280;36548;50.506;30.834;2023-01-26T02:51:38;101215.19;;;0.93;62.68
50592;BME280;36548;50.506;30.834;2023-01-26T02:52:47;101217.81;;;0.94;62.60
50592;BME280;36548;50.506;30.834;2023-01-26T02:54:00;101211.66;;;0.94;62.55
50592;BME280;36548;50.506;30.834;2023-01-26T02:55:10;101214.31;;;0.92;62.54
50592;BME280;36548;50.506;30.834;2023-01-26T02:56:33;101211.69;;;0.91;62.50
50592;BME280;36548;50.506;30.834;2023-01-26T02:57:44;101212.55;;;0.91;62.43
50592;BME280;36548;50.506;30.834;2023-01-26T02:58:53;101213.44;;;0.90;62.52
50592;BME280;36548;50.506;30.834;2023-01-26T03:00:11;101208.05;;;1.01;62.64
50592;BME280;36548;50.506;30.834;2023-01-26T03:01:20;101202.00;;;0.90;62.54
50592;BME280;36548;50.506;30.834;2023-01-26T03:02:29;101202.00;;;0.90;62.49
50592;BME280;36548;50.506;30.834;2023-01-26T03:03:38;101198.49;;;0.89;62.46
50592;BME280;36548;50.506;30.834;2023-01-26T03:04:51;101194.95;;;0.92;62.38
50592;BME280;36548;50.506;30.834;2023-01-26T03:06:08;101186.91;;;1.01;62.10
50592;BME280;36548;50.506;30.834;2023-01-26T03:07:19;101189.66;;;0.89;62.23
50592;BME280;36548;50.506;30.834;2023-01-26T03:08:31;101190.55;;;0.91;62.39
50592;BME280;36548;50.506;30.834;2023-01-26T03:09:41;101189.64;;;0.93;62.36
50592;BME280;36548;50.506;30.834;2023-01-26T03:10:52;101194.03;;;0.96;62.27
50592;BME280;36548;50.506;30.834;2023-01-26T03:12:02;101191.39;;;0.96;62.29
50592;BME280;36548;50.506;30.834;2023-01-26T03:13:12;101188.70;;;0.99;62.21
50592;BME280;36548;50.506;30.834;2023-01-26T03:14:22;101187.79;;;1.00;62.15
50592;BME280;36548;50.506;30.834;2023-01-26T03:15:31;101183.39;;;1.00;62.07
50592;BME280;36548;50.506;30.834;2023-01-26T03:16:46;101186.89;;;1.02;62.03
50592;BME280;36548;50.506;30.834;2023-01-26T03:18:05;101181.58;;;1.04;62.02
50592;BME280;36548;50.506;30.834;2023-01-26T03:19:29;101171.80;;;1.15;61.81
50592;BME280;36548;50.506;30.834;2023-01-26T03:21:00;101181.59;;;1.06;61.75
50592;BME280;36548;50.506;30.834;2023-01-26T03:22:28;101190.41;;;1.05;61.65
50592;BME280;36548;50.506;30.834;2023-01-26T03:23:57;101184.23;;;1.06;61.64
50592;BME280;36548;50.506;30.834;2023-01-26T03:25:25;101184.23;;;1.06;61.70
50592;BME280;36548;50.506;30.834;2023-01-26T03:26:53;101178.07;;;1.04;61.55
50592;BME280;36548;50.506;30.834;2023-01-26T03:28:21;101191.31;;;1.02;61.66
50592;BME280;36548;50.506;30.834;2023-01-26T03:29:33;101183.38;;;1.02;61.75
50592;BME280;36548;50.506;30.834;2023-01-26T03:30:43;101186.89;;;1.02;61.72
50592;BME280;36548;50.506;30.834;2023-01-26T03:31:54;101174.58;;;1.01;61.68
50592;BME280;36548;50.506;30.834;2023-01-26T03:33:03;101178.07;;;1.04;61.74
50592;BME280;36548;50.506;30.834;2023-01-26T03:34:12;101181.58;;;1.04;61.59
50592;BME280;36548;50.506;30.834;2023-01-26T03:35:22;101171.90;;;1.05;61.69
50592;BME280;36548;50.506;30.834;2023-01-26T03:36:32;101178.93;;;1.07;61.58
50592;BME280;36548;50.506;30.834;2023-01-26T03:37:43;101174.50;;;1.08;61.53
50592;BME280;36548;50.506;30.834;2023-01-26T03:38:56;101175.37;;;1.08;61.45
50592;BME280;36548;50.506;30.834;2023-01-26T03:40:10;101174.50;;;1.08;61.25
50592;BME280;36548;50.506;30.834;2023-01-26T03:41:39;101173.66;;;1.06;61.27
50592;BME280;36548;50.506;30.834;2023-01-26T03:43:12;101162.12;;;1.13;61.58
50592;BME280;36548;50.506;30.834;2023-01-26T03:44:41;101169.30;;;1.01;61.60
50592;BME280;36548;50.506;30.834;2023-01-26T03:46:10;101172.82;;;1.00;61.68
50592;BME280;36548;50.506;30.834;2023-01-26T03:47:38;101172.84;;;0.99;61.66
50592;BME280;36548;50.506;30.834;2023-01-26T03:49:05;101173.70;;;0.99;61.86
50592;BME280;36548;50.506;30.834;2023-01-26T03:50:40;101167.45;;;1.10;62.04
50592;BME280;36548;50.506;30.834;2023-01-26T03:52:10;101163.11;;;1.01;62.07
50592;BME280;36548;50.506;30.834;2023-01-26T03:53:38;101174.58;;;1.01;61.86
50592;BME280;36548;50.506;30.834;2023-01-26T03:55:07;101171.92;;;1.00;61.82
50592;BME280;36548;50.506;30.834;2023-01-26T03:56:36;101163.13;;;0.99;61.78
50592;BME280;36548;50.506;30.834;2023-01-26T03:57:54;101169.30;;;0.98;61.88
50592;BME280;36548;50.506;30.834;2023-01-26T03:59:04;101170.22;;;0.97;61.62
50592;BME280;36548;50.506;30.834;2023-01-26T04:00:20;101171.08;;;0.98;61.84
50592;BME280;36548;50.506;30.834;2023-01-26T04:01:30;101160.48;;;0.99;61.88
50592;BME280;36548;50.506;30.834;2023-01-26T04:02:41;101173.70;;;0.99;61.71
50592;BME280;36548;50.506;30.834;2023-01-26T04:04:15;101160.40;;;1.09;61.44
50592;BME280;36548;50.506;30.834;2023-01-26T04:05:42;101171.09;;;0.96;61.41
50592;BME280;36548;50.506;30.834;2023-01-26T04:07:12;101173.74;;;0.96;61.58
50592;BME280;36548;50.506;30.834;2023-01-26T04:08:39;101172.86;;;0.94;61.48
50592;BME280;36548;50.506;30.834;2023-01-26T04:09:48;101175.52;;;0.94;61.84
50592;BME280;36548;50.506;30.834;2023-01-26T04:10:58;101176.41;;;0.95;61.85
50592;BME280;36548;50.506;30.834;2023-01-26T04:12:07;101177.27;;;0.95;61.88
50592;BME280;36548;50.506;30.834;2023-01-26T04:13:21;101177.25;;;0.97;61.92
50592;BME280;36548;50.506;30.834;2023-01-26T04:14:51;101179.03;;;0.96;61.66
50592;BME280;36548;50.506;30.834;2023-01-26T04:16:19;101176.45;;;0.89;61.18
50592;BME280;36548;50.506;30.834;2023-01-26T04:17:47;101173.83;;;0.87;61.99
50592;BME280;36548;50.506;30.834;2023-01-26T04:19:14;101172.94;;;0.88;62.03
50592;BME280;36548;50.506;30.834;2023-01-26T04:20:43;101179.97;;;0.91;62.32
50592;BME280;36548;50.506;30.834;2023-01-26T04:22:12;101178.25;;;0.87;61.79
50592;BME280;36548;50.506;30.834;2023-01-26T08:06:20;101172.30;;;-1.15;81.00
50592;BME280;36548;50.506;30.834;2023-01-26T08:07:36;101170.55;;;-1.04;80.60
50592;BME280;36548;50.506;30.834;2023-01-26T08:08:46;101177.56;;;-1.08;80.27
50592;BME280;36548;50.506;30.834;2023-01-26T08:09:59;101175.81;;;-1.04;80.00
50592;BME280;36548;50.506;30.834;2023-01-26T08:11:15;101176.62;;;-0.83;79.92
50592;BME280;36548;50.506;30.834;2023-01-26T08:12:24;101176.61;;;-0.82;80.02
50592;BME280;36548;50.506;30.834;2023-01-26T08:13:33;101180.97;;;-0.67;79.72
50592;BME280;36548;50.506;30.834;2023-01-26T08:14:44;101184.45;;;-0.51;79.38
50592;BME280;36548;50.506;30.834;2023-01-26T08:16:06;101177.30;;;-0.26;78.33
50592;BME280;36548;50.506;30.834;2023-01-26T08:17:17;101172.89;;;-0.22;78.32
50592;BME280;36548;50.506;30.834;2023-01-26T08:18:27;101175.44;;;-0.07;77.97
50592;BME280;36548;50.506;30.834;2023-01-26T08:19:38;101177.09;;;0.07;77.49
50592;BME280;36548;50.506;30.834;2023-01-26T08:20:59;101173.39;;;0.36;77.43
50592;BME280;36548;50.506;30.834;2023-01-26T08:22:08;101176.88;;;0.41;77.16
50592;BME280;36548;50.506;30.834;2023-01-26T08:23:18;101173.27;;;0.51;76.73
50592;BME280;36548;50.506;30.834;2023-01-26T08:24:28;101171.47;;;0.56;75.89
50592;BME280;36548;50.506;30.834;2023-01-26T08:25:41;101167.88;;;0.63;76.05
50592;BME280;36548;50.506;30.834;2023-01-26T08:27:17;101167.73;;;0.82;75.25
50592;BME280;36548;50.506;30.834;2023-01-26T08:28:26;101172.14;;;0.80;75.28
50592;BME280;36548;50.506;30.834;2023-01-26T08:29:41;101164.02;;;0.98;74.94
50592;BME280;36548;50.506;30.834;2023-01-26T08:30:51;101171.12;;;0.95;74.99
50592;BME280;36548;50.506;30.834;2023-01-26T08:32:00;101162.28;;;0.97;73.96
50592;BME280;36548;50.506;30.834;2023-01-26T08:33:09;101168.44;;;0.98;73.49
50592;BME280;36548;50.506;30.834;2023-01-26T08:34:24;101167.41;;;1.13;73.66
50592;BME280;36548;50.506;30.834;2023-01-26T08:35:33;101174.58;;;1.01;73.31
50592;BME280;36548;50.506;30.834;2023-01-26T08:36:43;101162.19;;;1.05;73.49
50592;BME280;36548;50.506;30.834;2023-01-26T08:37:52;101165.70;;;1.07;73.13
50592;BME280;36548;50.506;30.834;2023-01-26T08:40:27;101161.22;;;1.15;73.12
50592;BME280;36548;50.506;30.834;2023-01-26T08:41:37;101167.27;;;1.25;73.03
50592;BME280;36548;50.506;30.834;2023-01-26T08:42:47;101161.90;;;1.31;72.76
50592;BME280;36548;50.506;30.834;2023-01-26T08:43:56;101151.30;;;1.33;72.03
50592;BME280;36548;50.506;30.834;2023-01-26T08:45:08;101149.45;;;1.40;71.87
50592;BME280;36548;50.506;30.834;2023-01-26T08:46:17;101152.05;;;1.46;71.51
50592;BME280;36548;50.506;30.834;2023-01-26T08:47:26;101152.80;;;1.54;71.80
50592;BME280;36548;50.506;30.834;2023-01-26T08:48:41;101138.52;;;1.67;70.62
50592;BME280;36548;50.506;30.834;2023-01-26T08:49:51;101141.30;;;1.57;70.53
50592;BME280;36548;50.506;30.834;2023-01-26T08:51:07;101137.68;;;1.65;69.97
50592;BME280;36548;50.506;30.834;2023-01-26T08:52:16;101144.91;;;1.51;69.65
50592;BME280;36548;50.506;30.834;2023-01-26T08:53:28;101137.88;;;1.48;69.69
50592;BME280;36548;50.506;30.834;2023-01-26T08:54:38;101138.80;;;1.47;70.09
50592;BME280;36548;50.506;30.834;2023-01-26T08:55:55;101140.50;;;1.50;69.89
50592;BME280;36548;50.506;30.834;2023-01-26T08:57:06;101142.56;;;1.28;69.81
50592;BME280;36548;50.506;30.834;2023-01-26T08:58:17;101140.90;;;1.17;70.40
50592;BME280;36548;50.506;30.834;2023-01-26T08:59:40;101141.77;;;1.19;70.39
50592;BME280;36548;50.506;30.834;2023-01-26T09:00:50;101138.45;;;1.00;70.31
50592;BME280;36548;50.506;30.834;2023-01-26T09:01:59;101135.03;;;0.91;70.63
50592;BME280;36548;50.506;30.834;2023-01-26T09:03:14;101133.19;;;0.99;70.71
50592;BME280;36548;50.506;30.834;2023-01-26T09:04:23;101135.07;;;0.88;70.47
50592;BME280;36548;50.506;30.834;2023-01-26T09:05:40;101130.54;;;0.99;70.29
50592;BME280;36548;50.506;30.834;2023-01-26T09:06:51;101136.77;;;0.93;70.53
50592;BME280;36548;50.506;30.834;2023-01-26T09:08:01;101136.67;;;1.01;70.94
50592;BME280;36548;50.506;30.834;2023-01-26T09:09:13;101133.05;;;1.11;70.43
50592;BME280;36548;50.506;30.834;2023-01-26T09:10:29;101136.36;;;1.29;69.94
50592;BME280;36548;50.506;30.834;2023-01-26T09:11:41;101135.55;;;1.22;69.94
50592;BME280;36548;50.506;30.834;2023-01-26T09:12:52;101133.70;;;1.29;70.00
50592;BME280;36548;50.506;30.834;2023-01-26T09:14:01;101129.30;;;1.31;69.90
50592;BME280;36548;50.506;30.834;2023-01-26T09:15:10;101130.16;;;1.31;69.87
50592;BME280;36548;50.506;30.834;2023-01-26T09:16:19;101127.48;;;1.33;69.73
50592;BME280;36548;50.506;30.834;2023-01-26T09:17:28;101135.45;;;1.31;69.64
50592;BME280;36548;50.506;30.834;2023-01-26T09:18:39;101131.06;;;1.29;69.65
50592;BME280;36548;50.506;30.834;2023-01-26T09:19:49;101130.24;;;1.25;69.46
50592;BME280;36548;50.506;30.834;2023-01-26T09:21:03;101129.45;;;1.17;69.49
50592;BME280;36548;50.506;30.834;2023-01-26T09:22:12;101129.48;;;1.12;69.52
50592;BME280;36548;50.506;30.834;2023-01-26T09:23:21;101126.05;;;1.07;69.35
50592;BME280;36548;50.506;30.834;2023-01-26T09:24:30;101132.26;;;1.03;69.27
50592;BME280;36548;50.506;30.834;2023-01-26T09:25:39;101127.04;;;0.95;69.46
50592;BME280;36548;50.506;30.834;2023-01-26T09:26:48;101126.20;;;0.90;69.61
50592;BME280;36548;50.506;30.834;2023-01-26T09:27:57;101125.37;;;0.87;69.40
50592;BME280;36548;50.506;30.834;2023-01-26T09:29:06;101122.77;;;0.83;69.27
50592;BME280;36548;50.506;30.834;2023-01-26T09:30:16;101130.77;;;0.76;69.42
50592;BME280;36548;50.506;30.834;2023-01-26T09:31:25;101129.05;;;0.72;69.72
50592;BME280;36548;50.506;30.834;2023-01-26T09:32:35;101126.44;;;0.68;69.67
50592;BME280;36548;50.506;30.834;2023-01-26T09:33:44;101126.50;;;0.64;69.77
50592;BME280;36548;50.506;30.834;2023-01-26T09:34:53;101122.99;;;0.60;70.16
50592;BME280;36548;50.506;30.834;2023-01-26T09:36:07;101126.53;;;0.58;70.36
50592;BME280;36548;50.506;30.834;2023-01-26T09:37:17;101116.88;;;0.54;70.54
50592;BME280;36548;50.506;30.834;2023-01-26T09:38:33;101114.09;;;0.69;70.90
50592;BME280;36548;50.506;30.834;2023-01-26T09:39:42;101117.63;;;0.66;70.82
50592;BME280;36548;50.506;30.834;2023-01-26T09:42:30;101115.58;;;0.96;70.83
50592;BME280;36548;50.506;30.834;2023-01-26T09:43:57;101111.90;;;1.11;70.53
50592;BME280;36548;50.506;30.834;2023-01-26T09:46:25;101111.46;;;1.45;69.88
50592;BME280;36548;50.506;30.834;2023-01-26T09:50:53;101103.78;;;1.91;69.04
50592;BME280;36548;50.506;30.834;2023-01-26T09:54:58;101107.62;;;1.68;69.36
50592;BME280;36548;50.506;30.834;2023-01-26T09:56:18;101106.06;;;1.55;69.15
50592;BME280;36548;50.506;30.834;2023-01-26T09:57:36;101107.05;;;1.47;69.04
50592;BME280;36548;50.506;30.834;2023-01-26T09:58:49;101099.19;;;1.40;69.06
50592;BME280;36548;50.506;30.834;2023-01-26T10:00:15;101095.66;;;1.41;69.15
50592;BME280;36548;50.506;30.834;2023-01-26T10:01:28;101102.02;;;1.26;69.51
50592;BME280;36548;50.506;30.834;2023-01-26T10:05:44;101104.72;;;1.21;68.99
50592;BME280;36548;50.506;30.834;2023-01-26T10:07:02;101098.50;;;1.25;68.92
50592;BME280;36548;50.506;30.834;2023-01-26T10:08:27;101101.34;;;1.10;68.72
50592;BME280;36548;50.506;30.834;2023-01-26T10:09:37;101104.03;;;1.04;68.82
50592;BME280;36548;50.506;30.834;2023-01-26T10:10:52;101095.27;;;0.98;68.99
50592;BME280;36548;50.506;30.834;2023-01-26T10:13:23;101091.84;;;0.90;69.65
50592;BME280;36548;50.506;30.834;2023-01-26T10:14:38;101092.75;;;0.89;69.95
50592;BME280;36548;50.506;30.834;2023-01-26T10:17:30;101089.08;;;1.01;70.88
50592;BME280;36548;50.506;30.834;2023-01-26T10:21:36;101082.08;;;0.97;70.91
50592;BME280;36548;50.506;30.834;2023-01-26T10:22:54;101083.44;;;1.32;70.66
50592;BME280;36548;50.506;30.834;2023-01-26T10:24:04;101089.56;;;1.34;70.28
50592;BME280;36548;50.506;30.834;2023-01-26T10:25:26;101086.72;;;1.49;70.09
50592;BME280;36548;50.506;30.834;2023-01-26T10:26:37;101075.66;;;1.82;69.99
50592;BME280;36548;50.506;30.834;2023-01-26T10:27:46;101082.68;;;1.84;69.30
50592;BME280;36548;50.506;30.834;2023-01-26T10:28:57;101074.49;;;2.00;68.78
50592;BME280;36548;50.506;30.834;2023-01-26T10:30:11;101081.30;;;2.16;68.70
50592;BME280;36548;50.506;30.834;2023-01-26T10:31:30;101071.36;;;2.31;68.56
50592;BME280;36548;50.506;30.834;2023-01-26T10:32:43;101074.16;;;2.21;68.37
50592;BME280;36548;50.506;30.834;2023-01-26T10:34:15;101069.81;;;2.17;67.88
50592;BME280;36548;50.506;30.834;2023-01-26T10:35:25;101076.95;;;2.14;67.75